sensor_id;sensor_type;location;lat;lon;timestamp;P1;durP1;ratioP1;P2;durP2;ratioP2
17852;SDS011;9052;53.494;14.376;2022-08-01T00:00:19;1.43;;;1.30;;
17852;SDS011;9052;53.494;14.376;2022-08-01T00:02:46;2.17;;;1.93;;
17852;SDS011;9052;53.494;14.376;2022-08-01T00:05:14;14.33;;;2.07;;
17852;SDS011;9052;53.494;14.376;2022-08-01T00:07:41;13.77;;;2.17;;
17852;SDS011;9052;53.494;14.376;2022-08-01T00:10:09;4.77;;;2.40;;
17852;SDS011;9052;53.494;14.376;2022-08-01T00:12:37;9.60;;;2.47;;
17852;SDS011;9052;53.494;14.376;2022-08-01T00:15:04;2.43;;;2.23;;
17852;SDS011;9052;53.494;14.376;2022-08-01T00:17:32;2.90;;;1.77;;
17852;SDS011;9052;53.494;14.376;2022-08-01T00:20:00;2.17;;;1.97;;
17852;SDS011;9052;53.494;14.376;2022-08-01T00:22:29;7.00;;;2.00;;
17852;SDS011;9052;53.494;14.376;2022-08-01T00:24:56;2.20;;;2.00;;
17852;SDS011;9052;53.494;14.376;2022-08-01T00:27:23;2.03;;;1.73;;
17852;SDS011;9052;53.494;14.376;2022-08-01T00:29:50;3.37;;;2.33;;
17852;SDS011;9052;53.494;14.376;2022-08-01T00:32:17;7.00;;;2.30;;
17852;SDS011;9052;53.494;14.376;2022-08-01T00:34:44;2.40;;;2.20;;
17852;SDS011;9052;53.494;14.376;2022-08-01T00:37:11;2.67;;;1.90;;
17852;SDS011;9052;53.494;14.376;2022-08-01T00:39:40;2.20;;;2.00;;
17852;SDS011;9052;53.494;14.376;2022-08-01T00:42:07;2.37;;;2.27;;
17852;SDS011;9052;53.494;14.376;2022-08-01T00:44:35;2.20;;;1.80;;
17852;SDS011;9052;53.494;14.376;2022-08-01T00:47:02;2.47;;;2.00;;
17852;SDS011;9052;53.494;14.376;2022-08-01T00:49:30;7.83;;;3.10;;
17852;SDS011;9052;53.494;14.376;2022-08-01T00:51:57;14.13;;;3.60;;
17852;SDS011;9052;53.494;14.376;2022-08-01T00:54:24;3.17;;;2.70;;
17852;SDS011;9052;53.494;14.376;2022-08-01T00:56:56;3.10;;;2.87;;
17852;SDS011;9052;53.494;14.376;2022-08-01T00:59:23;6.37;;;2.60;;
17852;SDS011;9052;53.494;14.376;2022-08-01T01:01:50;2.57;;;2.43;;
17852;SDS011;9052;53.494;14.376;2022-08-01T01:04:18;28.50;;;2.90;;
17852;SDS011;9052;53.494;14.376;2022-08-01T01:06:47;2.30;;;2.10;;
17852;SDS011;9052;53.494;14.376;2022-08-01T01:09:21;2.03;;;1.93;;
17852;SDS011;9052;53.494;14.376;2022-08-01T01:11:59;6.20;;;3.47;;
17852;SDS011;9052;53.494;14.376;2022-08-01T01:14:31;3.50;;;3.07;;
17852;SDS011;9052;53.494;14.376;2022-08-01T01:17:00;4.60;;;3.23;;
17852;SDS011;9052;53.494;14.376;2022-08-01T01:19:30;2.17;;;2.07;;
17852;SDS011;9052;53.494;14.376;2022-08-01T01:22:08;2.43;;;2.30;;
17852;SDS011;9052;53.494;14.376;2022-08-01T01:24:48;3.00;;;2.73;;
17852;SDS011;9052;53.494;14.376;2022-08-01T01:27:36;2.70;;;2.43;;
17852;SDS011;9052;53.494;14.376;2022-08-01T01:30:10;2.90;;;2.70;;
17852;SDS011;9052;53.494;14.376;2022-08-01T01:32:38;3.07;;;2.77;;
17852;SDS011;9052;53.494;14.376;2022-08-01T01:35:07;3.43;;;2.60;;
17852;SDS011;9052;53.494;14.376;2022-08-01T01:37:38;3.20;;;2.90;;
17852;SDS011;9052;53.494;14.376;2022-08-01T01:40:06;3.83;;;3.10;;
17852;SDS011;9052;53.494;14.376;2022-08-01T01:42:34;3.63;;;3.33;;
17852;SDS011;9052;53.494;14.376;2022-08-01T01:45:03;4.20;;;2.87;;
17852;SDS011;9052;53.494;14.376;2022-08-01T01:47:32;4.20;;;3.03;;
17852;SDS011;9052;53.494;14.376;2022-08-01T01:49:59;2.87;;;2.67;;
17852;SDS011;9052;53.494;14.376;2022-08-01T01:52:27;7.00;;;3.53;;
17852;SDS011;9052;53.494;14.376;2022-08-01T01:54:54;2.90;;;2.70;;
17852;SDS011;9052;53.494;14.376;2022-08-01T01:57:22;2.87;;;2.67;;
17852;SDS011;9052;53.494;14.376;2022-08-01T01:59:50;8.00;;;3.77;;
17852;SDS011;9052;53.494;14.376;2022-08-01T02:02:18;8.33;;;3.43;;
17852;SDS011;9052;53.494;14.376;2022-08-01T02:04:47;7.03;;;3.60;;
17852;SDS011;9052;53.494;14.376;2022-08-01T02:07:16;4.73;;;3.50;;
17852;SDS011;9052;53.494;14.376;2022-08-01T02:09:44;4.70;;;3.90;;
17852;SDS011;9052;53.494;14.376;2022-08-01T02:12:12;4.23;;;3.33;;
17852;SDS011;9052;53.494;14.376;2022-08-01T02:14:41;3.80;;;3.53;;
17852;SDS011;9052;53.494;14.376;2022-08-01T02:17:10;2.60;;;2.50;;
17852;SDS011;9052;53.494;14.376;2022-08-01T02:19:38;6.37;;;3.10;;
17852;SDS011;9052;53.494;14.376;2022-08-01T02:22:07;5.13;;;3.00;;
17852;SDS011;9052;53.494;14.376;2022-08-01T02:24:39;3.20;;;2.97;;
17852;SDS011;9052;53.494;14.376;2022-08-01T02:27:09;3.90;;;2.80;;
17852;SDS011;9052;53.494;14.376;2022-08-01T02:29:39;3.10;;;2.80;;
17852;SDS011;9052;53.494;14.376;2022-08-01T02:32:08;6.77;;;3.60;;
17852;SDS011;9052;53.494;14.376;2022-08-01T02:34:39;4.83;;;2.87;;
17852;SDS011;9052;53.494;14.376;2022-08-01T02:37:08;3.10;;;3.00;;
17852;SDS011;9052;53.494;14.376;2022-08-01T02:39:36;4.50;;;3.17;;
17852;SDS011;9052;53.494;14.376;2022-08-01T02:42:06;9.67;;;2.63;;
17852;SDS011;9052;53.494;14.376;2022-08-01T02:44:35;2.80;;;2.60;;
17852;SDS011;9052;53.494;14.376;2022-08-01T02:47:04;6.60;;;3.00;;
17852;SDS011;9052;53.494;14.376;2022-08-01T02:49:31;6.10;;;3.10;;
17852;SDS011;9052;53.494;14.376;2022-08-01T02:52:00;6.50;;;3.73;;
17852;SDS011;9052;53.494;14.376;2022-08-01T02:54:32;7.50;;;3.53;;
17852;SDS011;9052;53.494;14.376;2022-08-01T02:56:59;10.93;;;4.07;;
17852;SDS011;9052;53.494;14.376;2022-08-01T02:59:28;4.53;;;2.80;;
17852;SDS011;9052;53.494;14.376;2022-08-01T03:01:56;3.27;;;2.40;;
17852;SDS011;9052;53.494;14.376;2022-08-01T03:04:24;4.80;;;3.07;;
17852;SDS011;9052;53.494;14.376;2022-08-01T03:06:52;6.20;;;3.23;;
17852;SDS011;9052;53.494;14.376;2022-08-01T03:09:23;4.20;;;3.23;;
17852;SDS011;9052;53.494;14.376;2022-08-01T03:11:53;2.90;;;2.70;;
17852;SDS011;9052;53.494;14.376;2022-08-01T03:14:23;3.60;;;2.80;;
17852;SDS011;9052;53.494;14.376;2022-08-01T03:16:51;3.63;;;3.07;;
17852;SDS011;9052;53.494;14.376;2022-08-01T03:19:18;4.23;;;3.50;;
17852;SDS011;9052;53.494;14.376;2022-08-01T03:21:47;3.63;;;3.03;;
17852;SDS011;9052;53.494;14.376;2022-08-01T03:24:14;7.03;;;3.00;;
17852;SDS011;9052;53.494;14.376;2022-08-01T03:26:43;10.97;;;4.00;;
17852;SDS011;9052;53.494;14.376;2022-08-01T03:29:12;5.00;;;4.33;;
17852;SDS011;9052;53.494;14.376;2022-08-01T03:31:43;2.87;;;2.67;;
17852;SDS011;9052;53.494;14.376;2022-08-01T03:34:11;6.47;;;3.40;;
17852;SDS011;9052;53.494;14.376;2022-08-01T03:36:41;4.27;;;3.67;;
17852;SDS011;9052;53.494;14.376;2022-08-01T03:39:11;9.83;;;4.37;;
17852;SDS011;9052;53.494;14.376;2022-08-01T03:41:39;9.70;;;3.50;;
17852;SDS011;9052;53.494;14.376;2022-08-01T03:44:10;6.10;;;3.77;;
17852;SDS011;9052;53.494;14.376;2022-08-01T03:46:40;5.73;;;3.10;;
17852;SDS011;9052;53.494;14.376;2022-08-01T03:49:11;6.47;;;3.60;;
17852;SDS011;9052;53.494;14.376;2022-08-01T03:51:49;6.10;;;4.57;;
17852;SDS011;9052;53.494;14.376;2022-08-01T03:54:17;9.70;;;5.50;;
17852;SDS011;9052;53.494;14.376;2022-08-01T03:56:47;8.93;;;4.43;;
17852;SDS011;9052;53.494;14.376;2022-08-01T03:59:17;11.40;;;4.30;;
17852;SDS011;9052;53.494;14.376;2022-08-01T04:01:45;7.73;;;3.67;;
17852;SDS011;9052;53.494;14.376;2022-08-01T04:04:12;3.50;;;3.20;;
17852;SDS011;9052;53.494;14.376;2022-08-01T04:06:39;7.10;;;4.47;;
17852;SDS011;9052;53.494;14.376;2022-08-01T04:09:07;8.57;;;4.47;;
17852;SDS011;9052;53.494;14.376;2022-08-01T04:11:34;6.43;;;4.40;;
17852;SDS011;9052;53.494;14.376;2022-08-01T04:14:01;5.20;;;3.07;;
17852;SDS011;9052;53.494;14.376;2022-08-01T04:16:30;4.30;;;3.90;;
17852;SDS011;9052;53.494;14.376;2022-08-01T04:18:56;7.83;;;3.93;;
17852;SDS011;9052;53.494;14.376;2022-08-01T04:21:24;3.77;;;3.10;;
17852;SDS011;9052;53.494;14.376;2022-08-01T04:23:54;3.70;;;3.40;;
17852;SDS011;9052;53.494;14.376;2022-08-01T04:26:23;3.73;;;3.40;;
17852;SDS011;9052;53.494;14.376;2022-08-01T04:28:51;7.07;;;3.50;;
17852;SDS011;9052;53.494;14.376;2022-08-01T04:31:19;8.43;;;4.10;;
17852;SDS011;9052;53.494;14.376;2022-08-01T04:33:49;3.20;;;2.70;;
17852;SDS011;9052;53.494;14.376;2022-08-01T04:36:17;4.97;;;3.93;;
17852;SDS011;9052;53.494;14.376;2022-08-01T04:38:46;8.93;;;3.17;;
17852;SDS011;9052;53.494;14.376;2022-08-01T04:41:15;3.27;;;2.97;;
17852;SDS011;9052;53.494;14.376;2022-08-01T04:43:42;7.30;;;3.57;;
17852;SDS011;9052;53.494;14.376;2022-08-01T04:46:09;10.40;;;3.30;;
17852;SDS011;9052;53.494;14.376;2022-08-01T04:48:37;3.57;;;3.27;;
17852;SDS011;9052;53.494;14.376;2022-08-01T04:51:09;5.37;;;3.77;;
17852;SDS011;9052;53.494;14.376;2022-08-01T04:53:38;4.20;;;3.17;;
17852;SDS011;9052;53.494;14.376;2022-08-01T04:56:05;4.77;;;3.20;;
17852;SDS011;9052;53.494;14.376;2022-08-01T04:58:32;8.30;;;3.33;;
17852;SDS011;9052;53.494;14.376;2022-08-01T05:00:59;7.03;;;3.33;;
17852;SDS011;9052;53.494;14.376;2022-08-01T05:03:26;5.97;;;2.70;;
17852;SDS011;9052;53.494;14.376;2022-08-01T05:05:53;12.57;;;2.50;;
17852;SDS011;9052;53.494;14.376;2022-08-01T05:08:22;9.93;;;2.67;;
17852;SDS011;9052;53.494;14.376;2022-08-01T05:10:49;4.00;;;2.20;;
17852;SDS011;9052;53.494;14.376;2022-08-01T05:13:17;6.13;;;2.33;;
17852;SDS011;9052;53.494;14.376;2022-08-01T05:15:44;6.10;;;2.43;;
17852;SDS011;9052;53.494;14.376;2022-08-01T05:18:11;5.23;;;2.53;;
17852;SDS011;9052;53.494;14.376;2022-08-01T05:20:38;6.50;;;3.67;;
17852;SDS011;9052;53.494;14.376;2022-08-01T05:23:06;4.30;;;3.07;;
17852;SDS011;9052;53.494;14.376;2022-08-01T05:25:34;8.13;;;2.70;;
17852;SDS011;9052;53.494;14.376;2022-08-01T05:28:01;5.03;;;2.53;;
17852;SDS011;9052;53.494;14.376;2022-08-01T05:30:29;5.17;;;2.90;;
17852;SDS011;9052;53.494;14.376;2022-08-01T05:32:56;9.00;;;3.10;;
17852;SDS011;9052;53.494;14.376;2022-08-01T05:35:22;17.00;;;2.90;;
17852;SDS011;9052;53.494;14.376;2022-08-01T05:37:50;4.50;;;3.10;;
17852;SDS011;9052;53.494;14.376;2022-08-01T05:40:17;8.97;;;3.30;;
17852;SDS011;9052;53.494;14.376;2022-08-01T05:42:45;7.67;;;3.00;;
17852;SDS011;9052;53.494;14.376;2022-08-01T05:45:12;7.43;;;3.07;;
17852;SDS011;9052;53.494;14.376;2022-08-01T05:47:39;3.37;;;3.03;;
17852;SDS011;9052;53.494;14.376;2022-08-01T05:50:06;11.00;;;2.60;;
17852;SDS011;9052;53.494;14.376;2022-08-01T05:52:35;3.20;;;2.30;;
17852;SDS011;9052;53.494;14.376;2022-08-01T05:55:03;19.50;;;2.93;;
17852;SDS011;9052;53.494;14.376;2022-08-01T05:57:31;6.30;;;2.63;;
17852;SDS011;9052;53.494;14.376;2022-08-01T05:59:59;5.00;;;2.50;;
17852;SDS011;9052;53.494;14.376;2022-08-01T06:02:26;7.10;;;2.93;;
17852;SDS011;9052;53.494;14.376;2022-08-01T06:04:55;4.30;;;2.87;;
17852;SDS011;9052;53.494;14.376;2022-08-01T06:07:22;13.30;;;3.00;;
17852;SDS011;9052;53.494;14.376;2022-08-01T06:09:49;5.27;;;2.27;;
17852;SDS011;9052;53.494;14.376;2022-08-01T06:12:16;9.27;;;2.50;;
17852;SDS011;9052;53.494;14.376;2022-08-01T06:14:43;5.83;;;2.40;;
17852;SDS011;9052;53.494;14.376;2022-08-01T06:17:11;6.03;;;2.10;;
17852;SDS011;9052;53.494;14.376;2022-08-01T06:19:38;17.23;;;2.47;;
17852;SDS011;9052;53.494;14.376;2022-08-01T06:22:06;9.00;;;2.70;;
17852;SDS011;9052;53.494;14.376;2022-08-01T06:24:33;6.23;;;3.50;;
17852;SDS011;9052;53.494;14.376;2022-08-01T06:27:00;2.80;;;2.37;;
17852;SDS011;9052;53.494;14.376;2022-08-01T06:29:29;6.63;;;3.40;;
17852;SDS011;9052;53.494;14.376;2022-08-01T06:31:56;5.63;;;3.70;;
17852;SDS011;9052;53.494;14.376;2022-08-01T06:34:25;8.23;;;3.47;;
17852;SDS011;9052;53.494;14.376;2022-08-01T06:36:52;8.23;;;3.40;;
17852;SDS011;9052;53.494;14.376;2022-08-01T06:39:19;14.37;;;3.10;;
17852;SDS011;9052;53.494;14.376;2022-08-01T06:41:46;4.93;;;2.43;;
17852;SDS011;9052;53.494;14.376;2022-08-01T06:44:13;5.87;;;2.50;;
17852;SDS011;9052;53.494;14.376;2022-08-01T06:46:40;13.93;;;4.37;;
17852;SDS011;9052;53.494;14.376;2022-08-01T06:49:07;6.50;;;3.30;;
17852;SDS011;9052;53.494;14.376;2022-08-01T06:51:38;4.10;;;2.63;;
17852;SDS011;9052;53.494;14.376;2022-08-01T06:54:05;3.50;;;2.47;;
17852;SDS011;9052;53.494;14.376;2022-08-01T06:56:31;12.03;;;3.03;;
17852;SDS011;9052;53.494;14.376;2022-08-01T06:59:00;16.77;;;3.03;;
17852;SDS011;9052;53.494;14.376;2022-08-01T07:01:27;14.37;;;3.50;;
17852;SDS011;9052;53.494;14.376;2022-08-01T07:03:54;3.77;;;3.30;;
17852;SDS011;9052;53.494;14.376;2022-08-01T07:06:21;9.57;;;4.00;;
17852;SDS011;9052;53.494;14.376;2022-08-01T07:08:50;7.53;;;3.63;;
17852;SDS011;9052;53.494;14.376;2022-08-01T07:11:18;36.63;;;6.00;;
17852;SDS011;9052;53.494;14.376;2022-08-01T07:13:45;12.53;;;5.67;;
17852;SDS011;9052;53.494;14.376;2022-08-01T07:16:12;11.60;;;5.80;;
17852;SDS011;9052;53.494;14.376;2022-08-01T07:18:41;21.63;;;4.67;;
17852;SDS011;9052;53.494;14.376;2022-08-01T07:21:08;18.57;;;5.90;;
17852;SDS011;9052;53.494;14.376;2022-08-01T07:23:35;18.47;;;5.17;;
17852;SDS011;9052;53.494;14.376;2022-08-01T07:26:04;13.30;;;5.13;;
17852;SDS011;9052;53.494;14.376;2022-08-01T07:28:31;11.70;;;5.33;;
17852;SDS011;9052;53.494;14.376;2022-08-01T07:30:58;13.20;;;5.43;;
17852;SDS011;9052;53.494;14.376;2022-08-01T07:33:25;15.67;;;5.70;;
17852;SDS011;9052;53.494;14.376;2022-08-01T07:35:52;11.23;;;6.63;;
17852;SDS011;9052;53.494;14.376;2022-08-01T07:38:19;4.77;;;3.70;;
17852;SDS011;9052;53.494;14.376;2022-08-01T07:40:46;8.80;;;4.83;;
17852;SDS011;9052;53.494;14.376;2022-08-01T07:43:14;19.67;;;4.50;;
17852;SDS011;9052;53.494;14.376;2022-08-01T07:45:41;4.60;;;4.17;;
17852;SDS011;9052;53.494;14.376;2022-08-01T07:48:08;8.93;;;4.10;;
17852;SDS011;9052;53.494;14.376;2022-08-01T07:50:35;7.37;;;4.40;;
17852;SDS011;9052;53.494;14.376;2022-08-01T07:53:02;7.47;;;4.20;;
17852;SDS011;9052;53.494;14.376;2022-08-01T07:55:30;6.60;;;4.70;;
17852;SDS011;9052;53.494;14.376;2022-08-01T07:57:57;7.90;;;3.80;;
17852;SDS011;9052;53.494;14.376;2022-08-01T08:00:25;11.63;;;4.90;;
17852;SDS011;9052;53.494;14.376;2022-08-01T08:02:52;12.23;;;5.07;;
17852;SDS011;9052;53.494;14.376;2022-08-01T08:05:20;5.30;;;4.00;;
17852;SDS011;9052;53.494;14.376;2022-08-01T08:07:47;4.80;;;4.33;;
17852;SDS011;9052;53.494;14.376;2022-08-01T08:10:14;7.80;;;4.53;;
17852;SDS011;9052;53.494;14.376;2022-08-01T08:12:41;6.53;;;4.30;;
17852;SDS011;9052;53.494;14.376;2022-08-01T08:15:08;14.73;;;8.00;;
17852;SDS011;9052;53.494;14.376;2022-08-01T08:17:38;7.43;;;5.47;;
17852;SDS011;9052;53.494;14.376;2022-08-01T08:20:05;11.30;;;6.23;;
17852;SDS011;9052;53.494;14.376;2022-08-01T08:22:33;11.80;;;5.60;;
17852;SDS011;9052;53.494;14.376;2022-08-01T08:25:00;8.70;;;6.27;;
17852;SDS011;9052;53.494;14.376;2022-08-01T08:27:27;10.60;;;4.90;;
17852;SDS011;9052;53.494;14.376;2022-08-01T08:29:55;4.37;;;3.70;;
17852;SDS011;9052;53.494;14.376;2022-08-01T08:32:22;20.00;;;5.27;;
17852;SDS011;9052;53.494;14.376;2022-08-01T08:34:50;11.13;;;5.93;;
17852;SDS011;9052;53.494;14.376;2022-08-01T08:37:18;9.47;;;5.27;;
17852;SDS011;9052;53.494;14.376;2022-08-01T08:39:45;11.10;;;5.50;;
17852;SDS011;9052;53.494;14.376;2022-08-01T08:42:12;20.93;;;7.17;;
17852;SDS011;9052;53.494;14.376;2022-08-01T08:44:40;11.33;;;5.90;;
17852;SDS011;9052;53.494;14.376;2022-08-01T08:47:07;10.90;;;6.27;;
17852;SDS011;9052;53.494;14.376;2022-08-01T08:49:35;107.57;;;12.17;;
17852;SDS011;9052;53.494;14.376;2022-08-01T08:52:04;21.53;;;5.87;;
17852;SDS011;9052;53.494;14.376;2022-08-01T08:54:31;22.00;;;4.90;;
17852;SDS011;9052;53.494;14.376;2022-08-01T08:56:59;10.13;;;6.40;;
17852;SDS011;9052;53.494;14.376;2022-08-01T08:59:27;95.43;;;7.83;;
17852;SDS011;9052;53.494;14.376;2022-08-01T09:01:55;18.23;;;6.80;;
17852;SDS011;9052;53.494;14.376;2022-08-01T09:04:22;19.63;;;5.60;;
17852;SDS011;9052;53.494;14.376;2022-08-01T09:06:49;6.87;;;5.50;;
17852;SDS011;9052;53.494;14.376;2022-08-01T09:09:17;9.33;;;5.37;;
17852;SDS011;9052;53.494;14.376;2022-08-01T09:11:44;8.73;;;5.83;;
17852;SDS011;9052;53.494;14.376;2022-08-01T09:14:12;9.53;;;5.07;;
17852;SDS011;9052;53.494;14.376;2022-08-01T09:16:47;7.73;;;4.90;;
17852;SDS011;9052;53.494;14.376;2022-08-01T09:19:15;7.60;;;4.53;;
17852;SDS011;9052;53.494;14.376;2022-08-01T09:21:54;20.23;;;6.40;;
17852;SDS011;9052;53.494;14.376;2022-08-01T09:24:24;10.40;;;5.20;;
17852;SDS011;9052;53.494;14.376;2022-08-01T09:26:51;7.77;;;4.23;;
17852;SDS011;9052;53.494;14.376;2022-08-01T09:29:20;53.77;;;7.97;;
17852;SDS011;9052;53.494;14.376;2022-08-01T09:31:48;7.00;;;5.20;;
17852;SDS011;9052;53.494;14.376;2022-08-01T09:34:23;18.50;;;5.20;;
17852;SDS011;9052;53.494;14.376;2022-08-01T09:36:52;18.57;;;5.23;;
17852;SDS011;9052;53.494;14.376;2022-08-01T09:39:21;8.67;;;4.50;;
17852;SDS011;9052;53.494;14.376;2022-08-01T09:41:51;5.03;;;3.83;;
17852;SDS011;9052;53.494;14.376;2022-08-01T09:44:18;9.73;;;4.63;;
17852;SDS011;9052;53.494;14.376;2022-08-01T09:46:52;7.37;;;4.80;;
17852;SDS011;9052;53.494;14.376;2022-08-01T09:49:27;12.70;;;5.17;;
17852;SDS011;9052;53.494;14.376;2022-08-01T09:51:55;12.33;;;5.13;;
17852;SDS011;9052;53.494;14.376;2022-08-01T09:54:31;15.73;;;4.53;;
17852;SDS011;9052;53.494;14.376;2022-08-01T09:57:13;10.53;;;4.00;;
17852;SDS011;9052;53.494;14.376;2022-08-01T09:59:43;42.40;;;4.70;;
17852;SDS011;9052;53.494;14.376;2022-08-01T10:02:13;5.60;;;3.67;;
17852;SDS011;9052;53.494;14.376;2022-08-01T10:04:48;4.13;;;3.73;;
17852;SDS011;9052;53.494;14.376;2022-08-01T10:07:15;3.53;;;2.93;;
17852;SDS011;9052;53.494;14.376;2022-08-01T10:09:44;7.23;;;4.30;;
17852;SDS011;9052;53.494;14.376;2022-08-01T10:12:12;4.30;;;3.70;;
17852;SDS011;9052;53.494;14.376;2022-08-01T10:14:41;4.43;;;2.90;;
17852;SDS011;9052;53.494;14.376;2022-08-01T10:17:10;17.10;;;3.30;;
17852;SDS011;9052;53.494;14.376;2022-08-01T10:19:40;3.80;;;3.30;;
17852;SDS011;9052;53.494;14.376;2022-08-01T10:22:09;5.13;;;3.40;;
17852;SDS011;9052;53.494;14.376;2022-08-01T10:24:39;46.53;;;4.57;;
17852;SDS011;9052;53.494;14.376;2022-08-01T10:27:09;4.87;;;3.93;;
17852;SDS011;9052;53.494;14.376;2022-08-01T10:29:40;7.07;;;3.87;;
17852;SDS011;9052;53.494;14.376;2022-08-01T10:32:08;4.30;;;3.77;;
17852;SDS011;9052;53.494;14.376;2022-08-01T10:34:36;7.17;;;3.87;;
17852;SDS011;9052;53.494;14.376;2022-08-01T10:37:04;4.77;;;3.67;;
17852;SDS011;9052;53.494;14.376;2022-08-01T10:39:32;5.90;;;3.97;;
17852;SDS011;9052;53.494;14.376;2022-08-01T10:41:59;15.23;;;3.87;;
17852;SDS011;9052;53.494;14.376;2022-08-01T10:44:28;6.07;;;3.50;;
17852;SDS011;9052;53.494;14.376;2022-08-01T10:46:59;3.87;;;3.47;;
17852;SDS011;9052;53.494;14.376;2022-08-01T10:49:30;3.80;;;3.17;;
17852;SDS011;9052;53.494;14.376;2022-08-01T10:51:58;11.87;;;3.47;;
17852;SDS011;9052;53.494;14.376;2022-08-01T10:54:25;9.80;;;3.73;;
17852;SDS011;9052;53.494;14.376;2022-08-01T10:56:53;4.13;;;3.27;;
17852;SDS011;9052;53.494;14.376;2022-08-01T10:59:22;6.00;;;4.03;;
17852;SDS011;9052;53.494;14.376;2022-08-01T11:01:59;5.13;;;4.03;;
17852;SDS011;9052;53.494;14.376;2022-08-01T11:04:33;5.17;;;3.10;;
17852;SDS011;9052;53.494;14.376;2022-08-01T11:07:11;9.20;;;4.07;;
17852;SDS011;9052;53.494;14.376;2022-08-01T11:09:45;14.50;;;4.17;;
17852;SDS011;9052;53.494;14.376;2022-08-01T11:12:13;5.20;;;3.53;;
17852;SDS011;9052;53.494;14.376;2022-08-01T11:17:57;5.23;;;4.80;;
17852;SDS011;9052;53.494;14.376;2022-08-01T11:20:26;5.40;;;4.30;;
17852;SDS011;9052;53.494;14.376;2022-08-01T11:31:39;6.67;;;4.57;;
17852;SDS011;9052;53.494;14.376;2022-08-01T11:34:07;6.30;;;4.70;;
17852;SDS011;9052;53.494;14.376;2022-08-01T11:36:34;13.47;;;5.30;;
17852;SDS011;9052;53.494;14.376;2022-08-01T11:39:11;6.80;;;4.10;;
17852;SDS011;9052;53.494;14.376;2022-08-01T11:41:40;6.73;;;4.50;;
17852;SDS011;9052;53.494;14.376;2022-08-01T11:44:09;9.43;;;3.70;;
17852;SDS011;9052;53.494;14.376;2022-08-01T11:46:46;12.93;;;4.10;;
17852;SDS011;9052;53.494;14.376;2022-08-01T11:52:27;10.50;;;4.07;;
17852;SDS011;9052;53.494;14.376;2022-08-01T11:54:55;7.23;;;3.77;;
17852;SDS011;9052;53.494;14.376;2022-08-01T11:57:23;9.43;;;4.07;;
17852;SDS011;9052;53.494;14.376;2022-08-01T11:59:51;7.43;;;3.97;;
17852;SDS011;9052;53.494;14.376;2022-08-01T12:02:20;10.03;;;3.60;;
17852;SDS011;9052;53.494;14.376;2022-08-01T12:04:53;6.23;;;3.40;;
17852;SDS011;9052;53.494;14.376;2022-08-01T12:07:23;5.40;;;3.90;;
17852;SDS011;9052;53.494;14.376;2022-08-01T12:09:57;4.70;;;2.70;;
17852;SDS011;9052;53.494;14.376;2022-08-01T12:12:27;7.90;;;3.60;;
17852;SDS011;9052;53.494;14.376;2022-08-01T12:14:56;7.50;;;3.30;;
17852;SDS011;9052;53.494;14.376;2022-08-01T12:17:34;2.87;;;2.67;;
17852;SDS011;9052;53.494;14.376;2022-08-01T12:20:02;5.37;;;2.93;;
17852;SDS011;9052;53.494;14.376;2022-08-01T12:22:32;3.20;;;3.00;;
17852;SDS011;9052;53.494;14.376;2022-08-01T12:25:04;18.03;;;3.50;;
17852;SDS011;9052;53.494;14.376;2022-08-01T12:27:32;15.33;;;2.77;;
17852;SDS011;9052;53.494;14.376;2022-08-01T12:30:00;3.13;;;2.93;;
17852;SDS011;9052;53.494;14.376;2022-08-01T12:32:28;3.50;;;2.70;;
17852;SDS011;9052;53.494;14.376;2022-08-01T12:34:56;2.93;;;2.73;;
17852;SDS011;9052;53.494;14.376;2022-08-01T12:37:27;3.00;;;2.80;;
17852;SDS011;9052;53.494;14.376;2022-08-01T12:39:55;17.67;;;3.90;;
17852;SDS011;9052;53.494;14.376;2022-08-01T12:42:23;13.10;;;3.30;;
17852;SDS011;9052;53.494;14.376;2022-08-01T12:44:51;3.10;;;2.90;;
17852;SDS011;9052;53.494;14.376;2022-08-01T12:47:19;12.23;;;3.97;;
17852;SDS011;9052;53.494;14.376;2022-08-01T12:49:47;9.33;;;3.80;;
17852;SDS011;9052;53.494;14.376;2022-08-01T12:52:14;4.50;;;4.03;;
17852;SDS011;9052;53.494;14.376;2022-08-01T12:57:36;7.93;;;4.20;;
17852;SDS011;9052;53.494;14.376;2022-08-01T13:00:12;5.80;;;3.37;;
17852;SDS011;9052;53.494;14.376;2022-08-01T13:02:42;4.23;;;3.90;;
17852;SDS011;9052;53.494;14.376;2022-08-01T13:05:10;3.20;;;2.77;;
17852;SDS011;9052;53.494;14.376;2022-08-01T13:07:38;3.70;;;3.30;;
17852;SDS011;9052;53.494;14.376;2022-08-01T13:10:06;4.50;;;2.77;;
17852;SDS011;9052;53.494;14.376;2022-08-01T13:12:36;3.40;;;2.53;;
17852;SDS011;9052;53.494;14.376;2022-08-01T13:15:17;3.20;;;2.80;;
17852;SDS011;9052;53.494;14.376;2022-08-01T13:17:46;2.77;;;2.43;;
17852;SDS011;9052;53.494;14.376;2022-08-01T13:20:27;3.47;;;2.57;;
17852;SDS011;9052;53.494;14.376;2022-08-01T13:23:13;5.60;;;2.70;;
17852;SDS011;9052;53.494;14.376;2022-08-01T13:25:52;2.00;;;1.90;;
17852;SDS011;9052;53.494;14.376;2022-08-01T13:28:21;2.97;;;2.20;;
17852;SDS011;9052;53.494;14.376;2022-08-01T13:30:53;6.63;;;1.97;;
17852;SDS011;9052;53.494;14.376;2022-08-01T13:33:22;6.60;;;2.20;;
17852;SDS011;9052;53.494;14.376;2022-08-01T13:35:49;1.90;;;1.80;;
17852;SDS011;9052;53.494;14.376;2022-08-01T13:38:17;10.93;;;2.10;;
17852;SDS011;9052;53.494;14.376;2022-08-01T13:40:44;14.53;;;3.00;;
17852;SDS011;9052;53.494;14.376;2022-08-01T13:43:13;2.70;;;2.50;;
17852;SDS011;9052;53.494;14.376;2022-08-01T13:45:40;3.30;;;3.10;;
17852;SDS011;9052;53.494;14.376;2022-08-01T13:48:07;4.07;;;3.77;;
17852;SDS011;9052;53.494;14.376;2022-08-01T13:50:34;5.10;;;4.03;;
17852;SDS011;9052;53.494;14.376;2022-08-01T13:53:01;5.83;;;5.13;;
17852;SDS011;9052;53.494;14.376;2022-08-01T13:55:27;6.40;;;5.23;;
17852;SDS011;9052;53.494;14.376;2022-08-01T13:57:54;10.00;;;6.30;;
17852;SDS011;9052;53.494;14.376;2022-08-01T14:00:23;6.17;;;5.77;;
17852;SDS011;9052;53.494;14.376;2022-08-01T14:02:50;5.73;;;5.33;;
17852;SDS011;9052;53.494;14.376;2022-08-01T14:05:17;8.33;;;5.47;;
17852;SDS011;9052;53.494;14.376;2022-08-01T14:07:44;12.90;;;5.57;;
17852;SDS011;9052;53.494;14.376;2022-08-01T14:10:11;6.57;;;5.73;;
17852;SDS011;9052;53.494;14.376;2022-08-01T14:12:38;7.10;;;6.40;;
17852;SDS011;9052;53.494;14.376;2022-08-01T14:15:05;7.40;;;6.70;;
17852;SDS011;9052;53.494;14.376;2022-08-01T14:17:35;7.23;;;6.63;;
17852;SDS011;9052;53.494;14.376;2022-08-01T14:20:02;9.80;;;6.37;;
17852;SDS011;9052;53.494;14.376;2022-08-01T14:22:30;12.43;;;7.00;;
17852;SDS011;9052;53.494;14.376;2022-08-01T14:24:57;8.67;;;6.57;;
17852;SDS011;9052;53.494;14.376;2022-08-01T14:27:24;5.87;;;5.40;;
17852;SDS011;9052;53.494;14.376;2022-08-01T14:29:51;7.03;;;6.40;;
17852;SDS011;9052;53.494;14.376;2022-08-01T14:32:18;6.53;;;5.57;;
17852;SDS011;9052;53.494;14.376;2022-08-01T14:34:46;9.73;;;6.67;;
17852;SDS011;9052;53.494;14.376;2022-08-01T14:37:13;7.17;;;6.57;;
17852;SDS011;9052;53.494;14.376;2022-08-01T14:39:40;8.20;;;6.30;;
17852;SDS011;9052;53.494;14.376;2022-08-01T14:42:07;8.40;;;6.83;;
17852;SDS011;9052;53.494;14.376;2022-08-01T14:44:34;7.20;;;6.60;;
17852;SDS011;9052;53.494;14.376;2022-08-01T14:47:01;6.67;;;6.03;;
17852;SDS011;9052;53.494;14.376;2022-08-01T14:49:28;14.10;;;7.33;;
17852;SDS011;9052;53.494;14.376;2022-08-01T14:51:57;6.90;;;5.77;;
17852;SDS011;9052;53.494;14.376;2022-08-01T14:54:24;7.60;;;6.63;;
17852;SDS011;9052;53.494;14.376;2022-08-01T14:56:50;6.10;;;5.63;;
17852;SDS011;9052;53.494;14.376;2022-08-01T14:59:18;6.77;;;5.30;;
17852;SDS011;9052;53.494;14.376;2022-08-01T15:01:45;5.07;;;4.70;;
17852;SDS011;9052;53.494;14.376;2022-08-01T15:04:12;10.80;;;4.70;;
17852;SDS011;9052;53.494;14.376;2022-08-01T15:06:39;4.50;;;4.17;;
17852;SDS011;9052;53.494;14.376;2022-08-01T15:09:07;5.00;;;4.00;;
17852;SDS011;9052;53.494;14.376;2022-08-01T15:11:34;4.00;;;3.63;;